Pagrindinis puslapis
METAR-TAF:

METAR-TAF

Oro uostai :

Mumbajus, Indija

platuma: 19-05-53N, ilguma: 072-50-02E, Aukštis: 4 m

Dabartinis oras

Ataskaita buvo paskelbta 10 valandos ir 19 minutes, ne 12:30 UTC
Ramus vėjas
Temperatūra 26°C
Drėgmė 70%
Slėgis 1011 hPa
Matomumas: 5000 m
Mažai debesys ne aukštis 2000 ft
dūmai

METAR: VAJJ 291230Z 00000KT 5000 FU FEW020 26/20 Q1011 NOSIG

Laikas: 04:19 (22:49 UTC)


TAF: trūkstamas

Orai ataskaitas ir orų prognozės (METAR, TAF).

turimą stotys yra geltonos ir raudonos taškus žemėlapyje.

Perkelti pele per norėdami pamatyti stoties vardą.

Tada spustelėkite, norėdami matyti oro stebėjimo ir prognozės.

Norėdami pakeisti žemėlapį: spustelėkite ant žalios mygtukų su juodo kryžiaus žemyn,; žalią mygtuką su brūkšneliu, jei norite nutolinti; arba žalių rodyklių gretimoms žemėlapius.


METAR-TAF: